createdAt,value
2022-09-15T00:01:00.908Z,26.30
2022-09-15T00:03:28.463Z,26.11
2022-09-15T00:05:55.155Z,26.22
2022-09-15T00:08:22.638Z,26.33
2022-09-15T00:10:53.526Z,26.33
2022-09-15T00:13:21.403Z,26.24
2022-09-15T00:15:48.314Z,26.27
2022-09-15T00:18:15.026Z,26.62
2022-09-15T00:20:43.285Z,26.66
2022-09-15T00:23:11.373Z,26.43
2022-09-15T00:25:50.956Z,26.52
2022-09-15T00:28:19.649Z,26.67
2022-09-15T00:30:49.754Z,26.53
2022-09-15T00:33:17.519Z,26.59
2022-09-15T00:35:46.391Z,26.55
2022-09-15T00:38:14.421Z,26.27
2022-09-15T00:40:50.140Z,26.10
2022-09-15T00:43:19.206Z,26.08
2022-09-15T00:45:45.946Z,26.11
2022-09-15T00:48:18.659Z,26.12
2022-09-15T00:50:51.903Z,26.20
2022-09-15T00:53:20.770Z,26.02
2022-09-15T00:55:49.742Z,26.16
2022-09-15T00:58:25.665Z,26.33
2022-09-15T01:00:58.153Z,26.61
2022-09-15T01:03:26.477Z,26.40
2022-09-15T01:06:02.097Z,26.27
2022-09-15T01:08:34.891Z,26.46
2022-09-15T01:11:02.726Z,26.44
2022-09-15T01:13:29.805Z,26.56
2022-09-15T01:16:30.863Z,26.31
2022-09-15T01:19:18.572Z,26.36
2022-09-15T01:22:17.371Z,26.32
2022-09-15T01:24:59.595Z,26.31
2022-09-15T01:27:58.136Z,26.51
2022-09-15T01:30:25.265Z,26.51
2022-09-15T01:33:25.860Z,26.50
2022-09-15T01:36:12.583Z,26.44
2022-09-15T01:39:01.056Z,26.35
2022-09-15T01:41:29.669Z,26.36
2022-09-15T01:43:58.862Z,26.35
2022-09-15T01:46:29.634Z,26.50
2022-09-15T01:49:00.456Z,26.29
2022-09-15T01:51:27.955Z,26.34
2022-09-15T01:53:56.446Z,26.19
2022-09-15T01:56:22.890Z,26.25
2022-09-15T01:58:51.249Z,26.15
2022-09-15T02:02:07.933Z,26.24
2022-09-15T02:04:48.526Z,26.11
2022-09-15T02:07:20.706Z,26.28
2022-09-15T02:09:58.946Z,26.11
2022-09-15T02:12:52.023Z,26.17
2022-09-15T02:15:33.377Z,26.22
2022-09-15T02:18:02.635Z,26.18
2022-09-15T02:20:48.503Z,25.92
2022-09-15T02:23:25.190Z,25.75
2022-09-15T02:25:57.035Z,25.69
2022-09-15T02:28:30.104Z,25.73
2022-09-15T02:30:59.183Z,25.63
2022-09-15T02:33:32.224Z,25.64
2022-09-15T02:35:59.794Z,25.73
2022-09-15T02:38:30.920Z,25.61
2022-09-15T02:40:57.386Z,25.67
2022-09-15T02:43:24.190Z,25.65
2022-09-15T02:45:50.837Z,26.14
2022-09-15T02:48:17.747Z,25.96
2022-09-15T02:50:44.293Z,25.85
2022-09-15T02:53:10.746Z,25.78
2022-09-15T02:55:37.233Z,25.73
2022-09-15T02:58:03.879Z,25.80
2022-09-15T03:00:31.188Z,25.72
2022-09-15T03:02:58.360Z,25.63
2022-09-15T03:05:28.530Z,25.76
2022-09-15T03:07:55.846Z,25.60
2022-09-15T03:10:24.075Z,25.44
2022-09-15T03:12:52.999Z,25.55
2022-09-15T03:15:22.020Z,25.56
2022-09-15T03:17:48.855Z,25.45
2022-09-15T03:20:18.617Z,25.71
2022-09-15T03:22:45.122Z,26.06
2022-09-15T03:25:11.989Z,25.93
2022-09-15T03:27:38.568Z,25.99
2022-09-15T03:30:06.715Z,26.20
2022-09-15T03:32:33.239Z,26.24
2022-09-15T03:35:00.087Z,25.91
2022-09-15T03:37:26.991Z,25.90
2022-09-15T03:39:53.573Z,25.84
2022-09-15T03:42:20.330Z,25.73
2022-09-15T03:44:46.986Z,25.52
2022-09-15T03:47:13.560Z,25.71
2022-09-15T03:49:40.056Z,25.97
2022-09-15T03:52:06.538Z,25.78
2022-09-15T03:54:32.958Z,25.95
2022-09-15T03:56:59.458Z,25.65
2022-09-15T03:59:25.950Z,25.44
2022-09-15T04:01:52.507Z,25.31
2022-09-15T04:04:19.168Z,25.45
2022-09-15T04:06:45.882Z,25.49
2022-09-15T04:09:12.389Z,25.64
2022-09-15T04:11:40.444Z,25.53
2022-09-15T04:14:06.960Z,25.50
2022-09-15T04:16:33.995Z,25.34
2022-09-15T04:19:00.847Z,25.35
2022-09-15T04:21:27.336Z,25.40
2022-09-15T04:23:54.674Z,25.32
2022-09-15T04:26:35.350Z,25.28
2022-09-15T04:29:04.855Z,25.28
2022-09-15T04:31:33.150Z,25.28
2022-09-15T04:33:59.884Z,25.37
2022-09-15T04:36:28.504Z,25.50
2022-09-15T04:38:55.796Z,25.81
2022-09-15T04:41:22.802Z,25.72
2022-09-15T04:43:49.793Z,25.72
2022-09-15T04:46:17.019Z,25.79
2022-09-15T04:48:45.975Z,25.86
2022-09-15T04:51:16.004Z,25.69
2022-09-15T04:53:42.596Z,25.69
2022-09-15T04:56:12.030Z,25.60
2022-09-15T04:58:40.356Z,25.79
2022-09-15T05:01:08.921Z,25.63
2022-09-15T05:03:37.551Z,25.67
2022-09-15T05:06:05.958Z,25.96
2022-09-15T05:08:32.487Z,25.80
2022-09-15T05:11:05.316Z,25.72
2022-09-15T05:13:31.873Z,26.07
2022-09-15T05:16:05.143Z,25.87
2022-09-15T05:18:31.921Z,25.89
2022-09-15T05:21:00.147Z,25.78
2022-09-15T05:23:26.762Z,25.68
2022-09-15T05:25:58.109Z,25.68
2022-09-15T05:28:25.168Z,25.73
2022-09-15T05:30:52.968Z,25.70
2022-09-15T05:33:23.671Z,25.69
2022-09-15T05:35:55.290Z,25.70
2022-09-15T05:38:21.950Z,25.39
2022-09-15T05:40:48.899Z,25.28
2022-09-15T05:43:16.551Z,25.20
2022-09-15T05:45:43.722Z,25.27
2022-09-15T05:48:13.119Z,25.29
2022-09-15T05:50:48.345Z,25.35
2022-09-15T05:53:15.579Z,25.37
2022-09-15T05:55:42.108Z,25.23
2022-09-15T05:58:08.670Z,25.28
2022-09-15T06:00:35.871Z,25.34
2022-09-15T06:03:02.810Z,25.31
2022-09-15T06:05:29.431Z,25.35
2022-09-15T06:07:56.777Z,25.24
2022-09-15T06:10:25.019Z,25.36
2022-09-15T06:12:55.324Z,25.40
2022-09-15T06:15:23.275Z,25.48
2022-09-15T06:17:49.855Z,25.41
2022-09-15T06:20:17.528Z,25.39
2022-09-15T06:22:47.473Z,25.38
2022-09-15T06:25:14.357Z,25.34
2022-09-15T06:27:42.018Z,25.21
2022-09-15T06:30:09.822Z,25.35
2022-09-15T06:32:36.864Z,25.45
2022-09-15T06:35:07.145Z,25.35
2022-09-15T06:37:34.711Z,25.49
2022-09-15T06:40:01.862Z,25.54
2022-09-15T06:42:28.515Z,25.67
2022-09-15T06:44:55.030Z,25.74
2022-09-15T06:47:21.479Z,25.87
2022-09-15T06:49:48.060Z,25.94
2022-09-15T06:52:14.524Z,26.13
2022-09-15T06:54:40.956Z,26.18
2022-09-15T06:57:08.601Z,26.33
2022-09-15T06:59:35.056Z,26.46
2022-09-15T07:02:05.097Z,26.51
2022-09-15T07:04:35.849Z,26.67
2022-09-15T07:07:02.348Z,26.61
2022-09-15T07:09:28.821Z,26.70
2022-09-15T07:11:55.258Z,26.73
2022-09-15T07:14:21.771Z,26.78
2022-09-15T07:16:48.380Z,26.75
2022-09-15T07:19:14.892Z,26.94
2022-09-15T07:21:41.362Z,26.90
2022-09-15T07:24:08.319Z,26.85
2022-09-15T07:26:34.923Z,26.81
2022-09-15T07:29:04.621Z,26.95
2022-09-15T07:31:33.540Z,26.80
2022-09-15T07:34:01.069Z,26.75
2022-09-15T07:36:28.121Z,26.57
2022-09-15T07:38:54.579Z,26.67
2022-09-15T07:41:23.941Z,26.66
2022-09-15T07:43:56.120Z,26.65
2022-09-15T07:46:24.279Z,26.53
2022-09-15T07:48:54.600Z,26.49
2022-09-15T07:51:21.092Z,26.53
2022-09-15T07:53:48.286Z,26.63
2022-09-15T07:56:18.363Z,26.93
2022-09-15T07:58:46.017Z,27.09
2022-09-15T08:01:14.807Z,26.90
2022-09-15T08:03:46.355Z,26.85
2022-09-15T08:06:13.395Z,26.84
2022-09-15T08:08:41.115Z,27.00
2022-09-15T08:11:09.271Z,27.12
2022-09-15T08:13:35.990Z,27.16
2022-09-15T08:16:07.923Z,27.32
2022-09-15T08:18:35.236Z,27.55
2022-09-15T08:21:13.686Z,27.57
2022-09-15T08:23:40.676Z,27.60
2022-09-15T08:26:13.604Z,27.61
2022-09-15T08:28:40.784Z,27.48
2022-09-15T08:31:09.123Z,27.77
2022-09-15T08:33:36.566Z,27.61
2022-09-15T08:36:06.219Z,27.45
2022-09-15T08:38:33.595Z,27.32
2022-09-15T08:41:06.471Z,27.30
2022-09-15T08:43:42.602Z,27.35
2022-09-15T08:46:16.003Z,27.41
2022-09-15T08:48:50.003Z,27.47
2022-09-15T08:51:24.497Z,27.54
2022-09-15T08:53:59.686Z,27.59
2022-09-15T08:56:28.763Z,27.67
2022-09-15T08:58:55.357Z,27.95
2022-09-15T09:01:56.960Z,27.88
2022-09-15T09:04:34.661Z,27.93
2022-09-15T09:07:28.203Z,28.00
2022-09-15T09:10:11.341Z,28.15
2022-09-15T09:12:46.653Z,28.27
2022-09-15T09:15:21.418Z,28.54
2022-09-15T09:17:53.479Z,28.53
2022-09-15T09:20:44.633Z,28.47
2022-09-15T09:23:15.291Z,28.29
2022-09-15T09:25:43.764Z,28.47
2022-09-15T09:28:30.014Z,28.58
2022-09-15T09:31:01.677Z,28.83
2022-09-15T09:33:34.683Z,28.81
2022-09-15T09:36:02.247Z,28.84
2022-09-15T09:38:35.058Z,28.84
2022-09-15T09:41:05.063Z,28.87
2022-09-15T09:43:32.756Z,28.81
2022-09-15T09:45:59.848Z,29.04
2022-09-15T09:48:28.704Z,29.28
2022-09-15T09:50:55.774Z,29.17
2022-09-15T09:53:33.207Z,29.24
2022-09-15T09:56:24.399Z,29.29
2022-09-15T09:58:54.200Z,29.58
2022-09-15T10:01:23.537Z,29.50
2022-09-15T10:03:50.068Z,29.67
2022-09-15T10:06:20.611Z,29.77
2022-09-15T10:08:58.779Z,29.49
2022-09-15T10:11:46.610Z,29.35
2022-09-15T10:14:37.566Z,29.54
2022-09-15T10:17:19.711Z,29.83
2022-09-15T10:20:01.257Z,30.11
2022-09-15T10:22:27.735Z,30.21
2022-09-15T10:24:54.545Z,30.03
2022-09-15T10:27:31.992Z,30.08
2022-09-15T10:30:31.000Z,30.35
2022-09-15T10:33:18.193Z,30.32
2022-09-15T10:35:45.228Z,30.24
2022-09-15T10:38:14.032Z,30.11
2022-09-15T10:41:11.191Z,29.87
2022-09-15T10:43:59.068Z,29.98
2022-09-15T10:46:42.980Z,29.94
2022-09-15T10:49:18.436Z,30.19
2022-09-15T10:51:59.927Z,29.93
2022-09-15T10:54:42.671Z,29.82
2022-09-15T11:00:05.229Z,29.50
2022-09-15T11:02:51.112Z,29.54
2022-09-15T11:05:22.719Z,29.63
2022-09-15T11:08:17.179Z,29.60
2022-09-15T11:10:51.680Z,29.58
2022-09-15T11:13:40.395Z,29.49
2022-09-15T11:16:34.063Z,29.46
2022-09-15T11:19:21.508Z,29.41
2022-09-15T11:21:53.985Z,29.41
2022-09-15T11:24:46.812Z,29.39
2022-09-15T11:27:23.512Z,28.97
2022-09-15T11:30:15.595Z,29.07
2022-09-15T11:32:54.297Z,29.12
2022-09-15T11:35:33.330Z,29.05
2022-09-15T11:38:21.079Z,29.37
2022-09-15T11:41:02.693Z,29.03
2022-09-15T11:43:34.016Z,28.99
2022-09-15T11:46:02.333Z,29.07
2022-09-15T11:48:40.867Z,29.16
2022-09-15T11:51:08.215Z,28.84
2022-09-15T11:53:48.342Z,28.75
2022-09-15T11:56:35.010Z,28.51
2022-09-15T11:59:22.997Z,28.49
2022-09-15T12:02:02.006Z,28.58
2022-09-15T12:04:32.141Z,28.53
2022-09-15T12:07:12.267Z,28.71
2022-09-15T12:09:41.043Z,28.62
2022-09-15T12:12:15.501Z,28.58
2022-09-15T12:14:44.855Z,28.68
2022-09-15T12:17:29.779Z,28.46
2022-09-15T12:20:06.556Z,28.18
2022-09-15T12:23:04.442Z,28.19
2022-09-15T12:25:42.085Z,28.02
2022-09-15T12:28:27.018Z,28.06
2022-09-15T12:31:30.824Z,27.61
2022-09-15T12:33:58.535Z,26.03
2022-09-15T12:36:42.942Z,25.25
2022-09-15T12:39:30.132Z,24.69
2022-09-15T12:42:25.403Z,25.48
2022-09-15T12:45:19.906Z,24.36
2022-09-15T12:47:54.693Z,24.64
2022-09-15T12:50:31.620Z,24.56
2022-09-15T12:53:14.343Z,24.41
2022-09-15T12:56:02.361Z,24.23
2022-09-15T12:58:41.052Z,23.84
2022-09-15T13:01:19.632Z,24.00
2022-09-15T13:03:46.360Z,23.49
2022-09-15T13:06:26.478Z,23.44
2022-09-15T13:09:02.175Z,24.20
2022-09-15T13:11:37.400Z,23.55
2022-09-15T13:14:04.116Z,24.08
2022-09-15T13:16:37.514Z,23.80
2022-09-15T13:19:11.924Z,23.84
2022-09-15T13:21:42.129Z,24.05
2022-09-15T13:24:19.255Z,24.36
2022-09-15T13:26:51.327Z,24.79
2022-09-15T13:29:20.270Z,25.00
2022-09-15T13:32:15.451Z,25.38
2022-09-15T13:35:09.569Z,25.48
2022-09-15T13:38:20.569Z,25.50
2022-09-15T13:41:02.087Z,25.81
2022-09-15T13:43:53.286Z,25.90
2022-09-15T13:46:57.045Z,26.39
2022-09-15T13:49:58.904Z,26.33
2022-09-15T13:52:37.187Z,26.60
2022-09-15T13:55:26.322Z,26.40
2022-09-15T14:01:05.823Z,26.24
2022-09-15T14:03:53.474Z,25.58
2022-09-15T14:06:24.831Z,26.31
2022-09-15T14:08:56.268Z,26.13
2022-09-15T14:11:30.334Z,25.80
2022-09-15T14:13:58.463Z,25.79
2022-09-15T14:16:33.919Z,25.77
2022-09-15T14:19:01.905Z,25.73
2022-09-15T14:21:34.544Z,25.36
2022-09-15T14:24:17.153Z,24.94
2022-09-15T14:26:43.689Z,24.74
2022-09-15T14:29:19.934Z,24.82
2022-09-15T14:31:48.189Z,24.75
2022-09-15T14:34:29.303Z,24.72
2022-09-15T14:37:06.752Z,24.46
2022-09-15T14:39:37.742Z,24.60
2022-09-15T14:42:32.408Z,25.12
2022-09-15T14:48:03.693Z,25.95
2022-09-15T14:50:33.100Z,26.19
2022-09-15T14:53:06.526Z,26.19
2022-09-15T14:55:45.982Z,26.07
2022-09-15T14:58:23.152Z,26.38
2022-09-15T15:01:02.159Z,26.12
2022-09-15T15:03:38.118Z,26.12
2022-09-15T15:09:01.797Z,26.37
2022-09-15T15:11:30.232Z,26.20
2022-09-15T15:13:57.497Z,26.13
2022-09-15T15:16:27.060Z,26.12
2022-09-15T15:18:56.175Z,26.34
2022-09-15T15:21:41.664Z,25.96
2022-09-15T15:24:16.544Z,26.12
2022-09-15T15:26:45.300Z,25.66
2022-09-15T15:29:39.671Z,25.57
2022-09-15T15:32:12.029Z,25.23
2022-09-15T15:34:38.851Z,25.41
2022-09-15T15:37:18.294Z,25.23
2022-09-15T15:39:46.464Z,25.32
2022-09-15T15:42:15.499Z,25.33
2022-09-15T15:45:13.463Z,25.39
2022-09-15T15:47:39.918Z,25.66
2022-09-15T15:50:14.422Z,25.64
2022-09-15T15:52:42.169Z,25.73
2022-09-15T15:55:12.739Z,25.68
2022-09-15T15:57:42.055Z,25.63
2022-09-15T16:00:23.838Z,25.87
2022-09-15T16:02:51.940Z,25.94
2022-09-15T16:05:20.560Z,25.82
2022-09-15T16:07:49.489Z,25.98
2022-09-15T16:10:20.961Z,26.05
2022-09-15T16:12:48.035Z,26.15
2022-09-15T16:15:19.908Z,26.20
2022-09-15T16:17:47.363Z,26.22
2022-09-15T16:20:19.738Z,26.28
2022-09-15T16:22:46.335Z,26.36
2022-09-15T16:25:23.276Z,26.27
2022-09-15T16:27:49.762Z,26.32
2022-09-15T16:30:16.262Z,26.27
2022-09-15T16:32:42.882Z,25.99
2022-09-15T16:35:26.433Z,25.95
2022-09-15T16:37:52.964Z,25.77
2022-09-15T16:40:19.472Z,25.73
2022-09-15T16:42:47.365Z,25.71
2022-09-15T16:45:40.545Z,25.50
2022-09-15T16:48:07.928Z,25.43
2022-09-15T16:50:35.063Z,25.48
2022-09-15T16:53:01.643Z,25.51
2022-09-15T16:55:35.799Z,25.54
2022-09-15T16:58:04.170Z,25.90
2022-09-15T17:00:33.365Z,26.10
2022-09-15T17:02:59.927Z,25.83
2022-09-15T17:05:29.922Z,25.55
2022-09-15T17:07:56.556Z,25.40
2022-09-15T17:10:23.355Z,25.36
2022-09-15T17:12:50.181Z,25.14
2022-09-15T17:15:27.118Z,25.38
2022-09-15T17:17:54.570Z,25.45
2022-09-15T17:20:22.499Z,25.71
2022-09-15T17:22:49.803Z,25.59
2022-09-15T17:25:38.528Z,25.79
2022-09-15T17:28:05.227Z,25.64
2022-09-15T17:30:32.544Z,25.67
2022-09-15T17:33:07.376Z,25.59
2022-09-15T17:35:35.890Z,25.64
2022-09-15T17:38:04.272Z,25.48
2022-09-15T17:40:31.520Z,25.70
2022-09-15T17:42:58.325Z,25.36
2022-09-15T17:45:35.531Z,25.23
2022-09-15T17:48:03.746Z,25.21
2022-09-15T17:50:32.814Z,25.21
2022-09-15T17:53:00.126Z,25.32
2022-09-15T17:55:28.536Z,25.01
2022-09-15T17:57:57.132Z,25.11
2022-09-15T18:00:25.723Z,25.13
2022-09-15T18:02:54.738Z,25.01
2022-09-15T18:05:27.274Z,24.93
2022-09-15T18:07:55.450Z,24.95
2022-09-15T18:10:22.463Z,24.96
2022-09-15T18:12:53.555Z,24.84
2022-09-15T18:15:26.042Z,24.83
2022-09-15T18:17:55.498Z,24.57
2022-09-15T18:20:24.960Z,24.41
2022-09-15T18:22:51.936Z,24.40
2022-09-15T18:25:30.857Z,24.44
2022-09-15T18:27:58.659Z,24.51
2022-09-15T18:30:28.511Z,24.45
2022-09-15T18:32:55.653Z,24.38
2022-09-15T18:35:22.810Z,24.34
2022-09-15T18:37:55.162Z,24.55
2022-09-15T18:40:21.815Z,24.64
2022-09-15T18:42:49.068Z,24.57
2022-09-15T18:45:17.889Z,24.42
2022-09-15T18:47:48.763Z,24.52
2022-09-15T18:50:17.160Z,24.37
2022-09-15T18:52:44.197Z,24.28
2022-09-15T18:55:17.866Z,24.23
2022-09-15T18:57:45.027Z,24.16
2022-09-15T19:00:23.947Z,24.10
2022-09-15T19:03:02.345Z,24.38
2022-09-15T19:05:30.027Z,24.26
2022-09-15T19:07:56.732Z,24.32
2022-09-15T19:10:23.592Z,24.26
2022-09-15T19:12:50.066Z,24.09
2022-09-15T19:15:16.645Z,24.04
2022-09-15T19:17:44.317Z,24.09
2022-09-15T19:20:14.207Z,24.04
2022-09-15T19:22:41.482Z,24.13
2022-09-15T19:25:09.673Z,23.96
2022-09-15T19:27:38.150Z,23.90
2022-09-15T19:30:05.750Z,23.84
2022-09-15T19:32:33.098Z,23.86
2022-09-15T19:34:59.528Z,24.17
2022-09-15T19:37:26.028Z,24.13
2022-09-15T19:39:52.621Z,24.11
2022-09-15T19:42:19.171Z,24.09
2022-09-15T19:44:46.050Z,24.28
2022-09-15T19:47:12.515Z,24.12
2022-09-15T19:49:39.024Z,24.34
2022-09-15T19:52:06.497Z,24.54
2022-09-15T19:54:34.526Z,24.63
2022-09-15T19:57:01.488Z,24.70
2022-09-15T19:59:31.271Z,24.74
2022-09-15T20:01:59.108Z,24.64
2022-09-15T20:07:10.016Z,24.48
2022-09-15T20:09:36.481Z,24.53
2022-09-15T20:12:03.588Z,24.50
2022-09-15T20:14:31.362Z,24.64
2022-09-15T20:17:00.987Z,24.60
2022-09-15T20:19:28.072Z,24.43
2022-09-15T20:21:54.456Z,24.39
2022-09-15T20:24:22.189Z,24.43
2022-09-15T20:26:48.705Z,24.80
2022-09-15T20:29:15.831Z,24.91
2022-09-15T20:31:42.564Z,25.07
2022-09-15T20:34:09.093Z,24.95
2022-09-15T20:36:38.398Z,24.76
2022-09-15T20:39:08.786Z,24.76
2022-09-15T20:41:35.299Z,24.67
2022-09-15T20:44:02.060Z,24.71
2022-09-15T20:46:31.562Z,24.77
2022-09-15T20:48:58.002Z,24.69
2022-09-15T20:51:26.844Z,24.67
2022-09-15T20:53:55.990Z,24.53
2022-09-15T20:56:25.551Z,24.65
2022-09-15T20:58:53.914Z,24.47
2022-09-15T21:01:25.729Z,24.33
2022-09-15T21:03:53.410Z,24.41
2022-09-15T21:06:22.146Z,24.66
2022-09-15T21:08:49.691Z,24.29
2022-09-15T21:11:17.916Z,24.14
2022-09-15T21:13:44.586Z,24.25
2022-09-15T21:16:16.880Z,24.01
2022-09-15T21:18:44.659Z,23.98
2022-09-15T21:21:15.019Z,24.49
2022-09-15T21:23:44.963Z,23.91
2022-09-15T21:26:14.799Z,24.03
2022-09-15T21:28:43.431Z,23.95
2022-09-15T21:31:16.096Z,24.35
2022-09-15T21:33:43.559Z,23.94
2022-09-15T21:36:12.595Z,24.04
2022-09-15T21:38:40.583Z,23.91
2022-09-15T21:41:09.779Z,23.98
2022-09-15T21:43:39.272Z,23.97
2022-09-15T21:46:08.504Z,23.71
2022-09-15T21:48:35.895Z,23.74
2022-09-15T21:51:04.200Z,23.83
2022-09-15T21:53:32.437Z,23.89
2022-09-15T21:56:06.783Z,23.76
2022-09-15T21:58:40.295Z,23.96
2022-09-15T22:01:21.096Z,24.08
2022-09-15T22:03:50.981Z,24.12
2022-09-15T22:06:18.584Z,23.93
2022-09-15T22:08:45.325Z,24.01
2022-09-15T22:11:11.792Z,24.06
2022-09-15T22:13:43.624Z,23.98
2022-09-15T22:16:18.438Z,23.95
2022-09-15T22:18:45.801Z,23.95
2022-09-15T22:21:12.650Z,23.98
2022-09-15T22:23:39.998Z,23.81
2022-09-15T22:26:17.799Z,23.66
2022-09-15T22:28:44.823Z,24.07
2022-09-15T22:31:13.562Z,24.02
2022-09-15T22:33:43.451Z,23.93
2022-09-15T22:36:11.693Z,23.84
2022-09-15T22:38:38.672Z,24.02
2022-09-15T22:41:08.978Z,24.33
2022-09-15T22:43:36.293Z,24.40
2022-09-15T22:46:03.091Z,24.13
2022-09-15T22:48:29.808Z,24.12
2022-09-15T22:50:56.419Z,24.30
2022-09-15T22:53:23.501Z,24.26
2022-09-15T22:55:51.478Z,24.29
2022-09-15T22:58:17.985Z,23.86
2022-09-15T23:00:44.617Z,23.96
2022-09-15T23:03:11.816Z,23.82
2022-09-15T23:05:38.593Z,23.72
2022-09-15T23:08:05.177Z,23.70
2022-09-15T23:10:32.753Z,23.70
2022-09-15T23:12:59.707Z,23.84
2022-09-15T23:15:26.386Z,23.75
2022-09-15T23:17:52.870Z,23.98
2022-09-15T23:20:19.309Z,23.84
2022-09-15T23:22:45.724Z,23.85
2022-09-15T23:25:12.180Z,23.97
2022-09-15T23:27:38.638Z,23.83
2022-09-15T23:30:05.466Z,23.93
2022-09-15T23:32:32.029Z,24.36
2022-09-15T23:34:58.479Z,24.52
2022-09-15T23:37:24.984Z,24.56
2022-09-15T23:39:52.342Z,24.51
2022-09-15T23:42:19.179Z,24.66
2022-09-15T23:44:45.820Z,24.53
2022-09-15T23:47:12.293Z,24.53
2022-09-15T23:49:38.738Z,24.46
2022-09-15T23:52:05.151Z,24.63
2022-09-15T23:54:31.658Z,24.53
2022-09-15T23:56:58.149Z,24.52
2022-09-15T23:59:24.748Z,24.54
